Ominato, ?minato Guard District (RJSO)

Name?minato Guard District
CityOminato
CountryJapan
ICAORJSO
IATA
Altitude2 m
CoordinatesGoogle Map
Live Air TrafficLiveATC.net
METARRJSO 091446Z 25004KT 210V270 4900 SHRA BR FEW005 SCT008 BKN015 15/15 Q1015 RMK 1ST005 4ST008 7CU015 A2999
2018-11-09 14:46:00 Wind: West-Southwest (250°) 2.06 m/s - Visibility: 4900 m - Weather: Showers Rain / Mist - Temperature: 15 °C - Dew point: 15 °C - Humidity: 100% - Pressure: 1015 hPa

Sorry, no flights used the airport in this database.